sensor_id;sensor_type;location;lat;lon;timestamp;P1;durP1;ratioP1;P2;durP2;ratioP2
7398;SDS011;3740;50.700;7.184;2023-02-28T00:00:47;9.33;;;7.17;;
7398;SDS011;3740;50.700;7.184;2023-02-28T00:03:12;9.67;;;7.00;;
7398;SDS011;3740;50.700;7.184;2023-02-28T00:05:38;8.80;;;6.80;;
7398;SDS011;3740;50.700;7.184;2023-02-28T00:08:04;8.33;;;7.37;;
7398;SDS011;3740;50.700;7.184;2023-02-28T00:10:30;9.63;;;7.47;;
7398;SDS011;3740;50.700;7.184;2023-02-28T00:12:59;8.23;;;6.47;;
7398;SDS011;3740;50.700;7.184;2023-02-28T00:15:27;7.43;;;6.60;;
7398;SDS011;3740;50.700;7.184;2023-02-28T00:17:52;8.40;;;5.80;;
7398;SDS011;3740;50.700;7.184;2023-02-28T00:20:18;6.70;;;5.33;;
7398;SDS011;3740;50.700;7.184;2023-02-28T00:22:45;9.00;;;6.80;;
7398;SDS011;3740;50.700;7.184;2023-02-28T00:25:13;8.37;;;6.83;;
7398;SDS011;3740;50.700;7.184;2023-02-28T00:27:40;8.43;;;6.40;;
7398;SDS011;3740;50.700;7.184;2023-02-28T00:30:08;8.63;;;6.67;;
7398;SDS011;3740;50.700;7.184;2023-02-28T00:32:35;9.60;;;7.03;;
7398;SDS011;3740;50.700;7.184;2023-02-28T00:35:01;10.47;;;7.90;;
7398;SDS011;3740;50.700;7.184;2023-02-28T00:37:27;10.13;;;7.77;;
7398;SDS011;3740;50.700;7.184;2023-02-28T00:39:53;8.53;;;7.30;;
7398;SDS011;3740;50.700;7.184;2023-02-28T00:42:18;9.47;;;7.47;;
7398;SDS011;3740;50.700;7.184;2023-02-28T00:44:44;7.67;;;6.03;;
7398;SDS011;3740;50.700;7.184;2023-02-28T00:47:10;7.73;;;5.90;;
7398;SDS011;3740;50.700;7.184;2023-02-28T00:49:35;8.90;;;6.80;;
7398;SDS011;3740;50.700;7.184;2023-02-28T00:52:01;8.93;;;6.03;;
7398;SDS011;3740;50.700;7.184;2023-02-28T00:54:26;6.10;;;4.60;;
7398;SDS011;3740;50.700;7.184;2023-02-28T00:56:52;5.43;;;4.53;;
7398;SDS011;3740;50.700;7.184;2023-02-28T00:59:17;5.63;;;4.13;;
7398;SDS011;3740;50.700;7.184;2023-02-28T01:01:45;5.47;;;4.33;;
7398;SDS011;3740;50.700;7.184;2023-02-28T01:04:11;6.67;;;4.43;;
7398;SDS011;3740;50.700;7.184;2023-02-28T01:06:37;5.37;;;4.53;;
7398;SDS011;3740;50.700;7.184;2023-02-28T01:09:04;4.80;;;4.20;;
7398;SDS011;3740;50.700;7.184;2023-02-28T01:11:30;5.20;;;4.20;;
7398;SDS011;3740;50.700;7.184;2023-02-28T01:13:57;4.17;;;3.57;;
7398;SDS011;3740;50.700;7.184;2023-02-28T01:16:22;4.03;;;3.37;;
7398;SDS011;3740;50.700;7.184;2023-02-28T01:18:48;5.83;;;3.90;;
7398;SDS011;3740;50.700;7.184;2023-02-28T01:21:15;7.13;;;4.70;;
7398;SDS011;3740;50.700;7.184;2023-02-28T01:23:42;6.43;;;5.07;;
7398;SDS011;3740;50.700;7.184;2023-02-28T01:26:13;5.73;;;4.40;;
7398;SDS011;3740;50.700;7.184;2023-02-28T01:28:40;6.63;;;4.83;;
7398;SDS011;3740;50.700;7.184;2023-02-28T01:31:06;6.20;;;4.87;;
7398;SDS011;3740;50.700;7.184;2023-02-28T01:33:32;5.17;;;4.20;;
7398;SDS011;3740;50.700;7.184;2023-02-28T01:35:59;5.30;;;4.47;;
7398;SDS011;3740;50.700;7.184;2023-02-28T01:38:29;6.07;;;4.40;;
7398;SDS011;3740;50.700;7.184;2023-02-28T01:40:55;4.43;;;4.03;;
7398;SDS011;3740;50.700;7.184;2023-02-28T01:45:52;8.83;;;5.50;;
7398;SDS011;3740;50.700;7.184;2023-02-28T01:48:19;7.63;;;5.53;;
7398;SDS011;3740;50.700;7.184;2023-02-28T01:50:48;6.53;;;4.87;;
7398;SDS011;3740;50.700;7.184;2023-02-28T01:53:16;6.43;;;5.30;;
7398;SDS011;3740;50.700;7.184;2023-02-28T01:55:45;6.27;;;5.50;;
7398;SDS011;3740;50.700;7.184;2023-02-28T01:58:13;5.90;;;5.10;;
7398;SDS011;3740;50.700;7.184;2023-02-28T02:00:40;7.60;;;5.40;;
7398;SDS011;3740;50.700;7.184;2023-02-28T02:03:12;6.27;;;4.53;;
7398;SDS011;3740;50.700;7.184;2023-02-28T02:05:39;6.67;;;4.80;;
7398;SDS011;3740;50.700;7.184;2023-02-28T02:08:12;5.27;;;4.77;;
7398;SDS011;3740;50.700;7.184;2023-02-28T02:10:46;6.70;;;4.80;;
7398;SDS011;3740;50.700;7.184;2023-02-28T02:13:34;6.23;;;5.10;;
7398;SDS011;3740;50.700;7.184;2023-02-28T02:16:20;6.23;;;4.53;;
7398;SDS011;3740;50.700;7.184;2023-02-28T02:24:51;4.97;;;4.07;;
7398;SDS011;3740;50.700;7.184;2023-02-28T02:33:22;5.33;;;4.60;;
7398;SDS011;3740;50.700;7.184;2023-02-28T02:36:12;5.93;;;5.03;;
7398;SDS011;3740;50.700;7.184;2023-02-28T02:38:48;5.10;;;4.30;;
7398;SDS011;3740;50.700;7.184;2023-02-28T02:46:30;5.53;;;4.00;;
7398;SDS011;3740;50.700;7.184;2023-02-28T02:49:00;4.40;;;3.73;;
7398;SDS011;3740;50.700;7.184;2023-02-28T02:51:29;4.83;;;3.60;;
7398;SDS011;3740;50.700;7.184;2023-02-28T02:53:59;4.30;;;3.40;;
7398;SDS011;3740;50.700;7.184;2023-02-28T02:56:28;3.83;;;3.33;;
7398;SDS011;3740;50.700;7.184;2023-02-28T02:58:57;4.10;;;3.70;;
7398;SDS011;3740;50.700;7.184;2023-02-28T03:01:27;3.87;;;3.00;;
7398;SDS011;3740;50.700;7.184;2023-02-28T03:04:10;4.23;;;3.40;;
7398;SDS011;3740;50.700;7.184;2023-02-28T03:06:41;3.27;;;2.97;;
7398;SDS011;3740;50.700;7.184;2023-02-28T03:09:06;4.57;;;3.37;;
7398;SDS011;3740;50.700;7.184;2023-02-28T03:11:32;4.33;;;3.57;;
7398;SDS011;3740;50.700;7.184;2023-02-28T03:19:43;5.27;;;3.63;;
7398;SDS011;3740;50.700;7.184;2023-02-28T03:25:12;6.07;;;4.60;;
7398;SDS011;3740;50.700;7.184;2023-02-28T03:28:05;5.60;;;4.27;;
7398;SDS011;3740;50.700;7.184;2023-02-28T03:30:47;5.13;;;4.00;;
7398;SDS011;3740;50.700;7.184;2023-02-28T03:33:22;5.03;;;3.77;;
7398;SDS011;3740;50.700;7.184;2023-02-28T03:35:53;5.70;;;3.90;;
7398;SDS011;3740;50.700;7.184;2023-02-28T03:38:29;4.10;;;3.67;;
7398;SDS011;3740;50.700;7.184;2023-02-28T03:41:05;4.47;;;3.60;;
7398;SDS011;3740;50.700;7.184;2023-02-28T03:43:41;5.80;;;4.53;;
7398;SDS011;3740;50.700;7.184;2023-02-28T03:46:14;6.77;;;4.40;;
7398;SDS011;3740;50.700;7.184;2023-02-28T03:48:48;4.67;;;4.23;;
7398;SDS011;3740;50.700;7.184;2023-02-28T03:51:22;4.87;;;4.40;;
7398;SDS011;3740;50.700;7.184;2023-02-28T03:53:59;5.33;;;4.60;;
7398;SDS011;3740;50.700;7.184;2023-02-28T03:56:33;6.73;;;5.87;;
7398;SDS011;3740;50.700;7.184;2023-02-28T04:01:47;5.33;;;4.83;;
7398;SDS011;3740;50.700;7.184;2023-02-28T04:04:14;5.20;;;4.70;;
7398;SDS011;3740;50.700;7.184;2023-02-28T04:06:41;5.53;;;5.03;;
7398;SDS011;3740;50.700;7.184;2023-02-28T04:09:08;4.40;;;4.00;;
7398;SDS011;3740;50.700;7.184;2023-02-28T04:11:42;5.83;;;5.23;;
7398;SDS011;3740;50.700;7.184;2023-02-28T04:14:16;6.00;;;5.20;;
7398;SDS011;3740;50.700;7.184;2023-02-28T04:16:42;5.83;;;5.23;;
7398;SDS011;3740;50.700;7.184;2023-02-28T04:19:09;6.53;;;5.83;;
7398;SDS011;3740;50.700;7.184;2023-02-28T04:21:38;4.23;;;3.80;;
7398;SDS011;3740;50.700;7.184;2023-02-28T04:24:06;5.70;;;3.63;;
7398;SDS011;3740;50.700;7.184;2023-02-28T04:26:34;3.60;;;3.30;;
7398;SDS011;3740;50.700;7.184;2023-02-28T04:29:01;5.60;;;4.57;;
7398;SDS011;3740;50.700;7.184;2023-02-28T04:31:28;6.60;;;4.80;;
7398;SDS011;3740;50.700;7.184;2023-02-28T04:33:53;4.43;;;3.97;;
7398;SDS011;3740;50.700;7.184;2023-02-28T04:36:19;4.60;;;3.53;;
7398;SDS011;3740;50.700;7.184;2023-02-28T04:38:45;3.63;;;3.20;;
7398;SDS011;3740;50.700;7.184;2023-02-28T04:41:11;5.37;;;3.43;;
7398;SDS011;3740;50.700;7.184;2023-02-28T04:43:37;4.07;;;3.30;;
7398;SDS011;3740;50.700;7.184;2023-02-28T04:46:03;4.63;;;3.50;;
7398;SDS011;3740;50.700;7.184;2023-02-28T04:48:31;5.33;;;3.77;;
7398;SDS011;3740;50.700;7.184;2023-02-28T04:51:02;4.20;;;3.63;;
7398;SDS011;3740;50.700;7.184;2023-02-28T04:53:35;3.90;;;3.33;;
7398;SDS011;3740;50.700;7.184;2023-02-28T04:56:02;5.57;;;3.60;;
7398;SDS011;3740;50.700;7.184;2023-02-28T04:58:28;3.93;;;3.50;;
7398;SDS011;3740;50.700;7.184;2023-02-28T05:00:57;4.33;;;3.60;;
7398;SDS011;3740;50.700;7.184;2023-02-28T05:03:37;3.90;;;3.60;;
7398;SDS011;3740;50.700;7.184;2023-02-28T05:06:07;4.10;;;3.70;;
7398;SDS011;3740;50.700;7.184;2023-02-28T05:08:33;6.20;;;4.77;;
7398;SDS011;3740;50.700;7.184;2023-02-28T05:10:59;9.17;;;7.57;;
7398;SDS011;3740;50.700;7.184;2023-02-28T05:13:26;11.53;;;9.20;;
7398;SDS011;3740;50.700;7.184;2023-02-28T05:15:52;12.47;;;10.40;;
7398;SDS011;3740;50.700;7.184;2023-02-28T05:18:18;12.70;;;11.40;;
7398;SDS011;3740;50.700;7.184;2023-02-28T05:20:43;13.87;;;11.80;;
7398;SDS011;3740;50.700;7.184;2023-02-28T05:23:12;12.70;;;10.47;;
7398;SDS011;3740;50.700;7.184;2023-02-28T05:25:39;12.07;;;9.50;;
7398;SDS011;3740;50.700;7.184;2023-02-28T05:28:05;13.00;;;11.10;;
7398;SDS011;3740;50.700;7.184;2023-02-28T05:30:31;13.00;;;11.53;;
7398;SDS011;3740;50.700;7.184;2023-02-28T05:32:57;13.10;;;11.53;;
7398;SDS011;3740;50.700;7.184;2023-02-28T05:35:23;14.50;;;12.10;;
7398;SDS011;3740;50.700;7.184;2023-02-28T05:37:51;15.97;;;11.93;;
7398;SDS011;3740;50.700;7.184;2023-02-28T05:40:17;16.20;;;13.13;;
7398;SDS011;3740;50.700;7.184;2023-02-28T05:42:44;14.17;;;12.33;;
7398;SDS011;3740;50.700;7.184;2023-02-28T05:45:10;20.63;;;16.67;;
7398;SDS011;3740;50.700;7.184;2023-02-28T05:47:35;16.17;;;12.70;;
7398;SDS011;3740;50.700;7.184;2023-02-28T05:50:01;15.57;;;11.50;;
7398;SDS011;3740;50.700;7.184;2023-02-28T05:52:28;12.03;;;9.83;;
7398;SDS011;3740;50.700;7.184;2023-02-28T05:54:55;8.87;;;7.97;;
7398;SDS011;3740;50.700;7.184;2023-02-28T05:57:20;8.27;;;6.13;;
7398;SDS011;3740;50.700;7.184;2023-02-28T05:59:46;6.90;;;5.90;;
7398;SDS011;3740;50.700;7.184;2023-02-28T06:02:12;9.13;;;7.23;;
7398;SDS011;3740;50.700;7.184;2023-02-28T06:04:38;10.07;;;7.83;;
7398;SDS011;3740;50.700;7.184;2023-02-28T06:07:05;9.67;;;7.10;;
7398;SDS011;3740;50.700;7.184;2023-02-28T06:09:31;7.43;;;6.23;;
7398;SDS011;3740;50.700;7.184;2023-02-28T06:11:57;7.73;;;5.93;;
7398;SDS011;3740;50.700;7.184;2023-02-28T06:14:24;8.93;;;5.87;;
7398;SDS011;3740;50.700;7.184;2023-02-28T06:16:49;6.10;;;5.50;;
7398;SDS011;3740;50.700;7.184;2023-02-28T06:19:15;7.13;;;6.20;;
7398;SDS011;3740;50.700;7.184;2023-02-28T06:21:40;9.00;;;7.37;;
7398;SDS011;3740;50.700;7.184;2023-02-28T06:24:06;10.53;;;7.03;;
7398;SDS011;3740;50.700;7.184;2023-02-28T06:26:33;9.53;;;8.43;;
7398;SDS011;3740;50.700;7.184;2023-02-28T06:28:58;15.53;;;10.37;;
7398;SDS011;3740;50.700;7.184;2023-02-28T06:31:25;9.43;;;8.10;;
7398;SDS011;3740;50.700;7.184;2023-02-28T06:33:51;9.37;;;7.07;;
7398;SDS011;3740;50.700;7.184;2023-02-28T06:36:17;7.63;;;6.73;;
7398;SDS011;3740;50.700;7.184;2023-02-28T06:38:43;8.20;;;7.30;;
7398;SDS011;3740;50.700;7.184;2023-02-28T06:41:09;9.37;;;7.67;;
7398;SDS011;3740;50.700;7.184;2023-02-28T06:43:37;8.93;;;7.00;;
7398;SDS011;3740;50.700;7.184;2023-02-28T06:46:06;9.83;;;8.30;;
7398;SDS011;3740;50.700;7.184;2023-02-28T06:48:34;8.10;;;7.30;;
7398;SDS011;3740;50.700;7.184;2023-02-28T06:51:07;8.67;;;6.40;;
7398;SDS011;3740;50.700;7.184;2023-02-28T06:53:34;7.63;;;6.83;;
7398;SDS011;3740;50.700;7.184;2023-02-28T06:56:03;7.27;;;6.57;;
7398;SDS011;3740;50.700;7.184;2023-02-28T06:58:30;7.80;;;6.60;;
7398;SDS011;3740;50.700;7.184;2023-02-28T07:00:56;7.70;;;6.90;;
7398;SDS011;3740;50.700;7.184;2023-02-28T07:03:21;7.43;;;6.40;;
7398;SDS011;3740;50.700;7.184;2023-02-28T07:05:48;7.13;;;6.43;;
7398;SDS011;3740;50.700;7.184;2023-02-28T07:08:13;8.47;;;6.97;;
7398;SDS011;3740;50.700;7.184;2023-02-28T07:10:39;8.33;;;6.33;;
7398;SDS011;3740;50.700;7.184;2023-02-28T07:13:05;5.87;;;5.03;;
7398;SDS011;3740;50.700;7.184;2023-02-28T07:15:32;6.20;;;5.17;;
7398;SDS011;3740;50.700;7.184;2023-02-28T07:17:57;6.80;;;5.60;;
7398;SDS011;3740;50.700;7.184;2023-02-28T07:20:23;6.97;;;5.50;;
7398;SDS011;3740;50.700;7.184;2023-02-28T07:22:49;6.73;;;6.03;;
7398;SDS011;3740;50.700;7.184;2023-02-28T07:25:21;6.60;;;6.00;;
7398;SDS011;3740;50.700;7.184;2023-02-28T07:27:48;8.77;;;7.90;;
7398;SDS011;3740;50.700;7.184;2023-02-28T07:30:13;10.20;;;8.57;;
7398;SDS011;3740;50.700;7.184;2023-02-28T07:32:39;13.97;;;12.20;;
7398;SDS011;3740;50.700;7.184;2023-02-28T07:35:05;14.10;;;11.23;;
7398;SDS011;3740;50.700;7.184;2023-02-28T07:37:31;16.90;;;14.17;;
7398;SDS011;3740;50.700;7.184;2023-02-28T07:40:01;15.60;;;13.67;;
7398;SDS011;3740;50.700;7.184;2023-02-28T07:42:34;16.17;;;12.97;;
7398;SDS011;3740;50.700;7.184;2023-02-28T07:45:00;11.23;;;10.07;;
7398;SDS011;3740;50.700;7.184;2023-02-28T07:47:26;9.90;;;8.90;;
7398;SDS011;3740;50.700;7.184;2023-02-28T07:49:51;13.57;;;11.07;;
7398;SDS011;3740;50.700;7.184;2023-02-28T07:52:17;11.23;;;9.97;;
7398;SDS011;3740;50.700;7.184;2023-02-28T07:54:43;11.07;;;9.97;;
7398;SDS011;3740;50.700;7.184;2023-02-28T07:57:08;10.17;;;9.17;;
7398;SDS011;3740;50.700;7.184;2023-02-28T07:59:34;7.90;;;7.17;;
7398;SDS011;3740;50.700;7.184;2023-02-28T08:01:59;9.93;;;8.90;;
7398;SDS011;3740;50.700;7.184;2023-02-28T08:04:25;5.50;;;5.00;;
7398;SDS011;3740;50.700;7.184;2023-02-28T08:06:51;7.33;;;4.80;;
7398;SDS011;3740;50.700;7.184;2023-02-28T08:09:18;5.07;;;4.60;;
7398;SDS011;3740;50.700;7.184;2023-02-28T08:11:44;5.77;;;4.57;;
7398;SDS011;3740;50.700;7.184;2023-02-28T08:14:09;4.87;;;4.13;;
7398;SDS011;3740;50.700;7.184;2023-02-28T08:16:35;4.00;;;3.70;;
7398;SDS011;3740;50.700;7.184;2023-02-28T08:19:00;3.83;;;3.53;;
7398;SDS011;3740;50.700;7.184;2023-02-28T08:21:26;5.37;;;3.90;;
7398;SDS011;3740;50.700;7.184;2023-02-28T08:23:51;5.10;;;3.93;;
7398;SDS011;3740;50.700;7.184;2023-02-28T08:26:17;3.70;;;3.27;;
7398;SDS011;3740;50.700;7.184;2023-02-28T08:28:43;5.13;;;4.40;;
7398;SDS011;3740;50.700;7.184;2023-02-28T08:31:10;4.50;;;4.07;;
7398;SDS011;3740;50.700;7.184;2023-02-28T08:33:37;5.17;;;3.70;;
7398;SDS011;3740;50.700;7.184;2023-02-28T08:36:04;5.10;;;4.70;;
7398;SDS011;3740;50.700;7.184;2023-02-28T08:38:30;4.63;;;3.70;;
7398;SDS011;3740;50.700;7.184;2023-02-28T08:40:59;5.30;;;4.30;;
7398;SDS011;3740;50.700;7.184;2023-02-28T08:43:26;4.20;;;3.80;;
7398;SDS011;3740;50.700;7.184;2023-02-28T08:45:53;5.33;;;4.37;;
7398;SDS011;3740;50.700;7.184;2023-02-28T08:48:19;4.50;;;4.10;;
7398;SDS011;3740;50.700;7.184;2023-02-28T08:50:54;4.07;;;3.53;;
7398;SDS011;3740;50.700;7.184;2023-02-28T08:53:43;4.13;;;3.80;;
7398;SDS011;3740;50.700;7.184;2023-02-28T08:56:10;4.90;;;3.73;;
7398;SDS011;3740;50.700;7.184;2023-02-28T08:58:38;3.70;;;3.40;;
7398;SDS011;3740;50.700;7.184;2023-02-28T09:01:08;4.53;;;3.53;;
7398;SDS011;3740;50.700;7.184;2023-02-28T09:03:38;3.73;;;3.43;;
7398;SDS011;3740;50.700;7.184;2023-02-28T09:06:03;3.43;;;3.13;;
7398;SDS011;3740;50.700;7.184;2023-02-28T09:08:30;3.63;;;3.33;;
7398;SDS011;3740;50.700;7.184;2023-02-28T09:10:56;3.63;;;3.33;;
7398;SDS011;3740;50.700;7.184;2023-02-28T09:13:23;3.87;;;3.47;;
7398;SDS011;3740;50.700;7.184;2023-02-28T09:15:49;6.17;;;3.73;;
7398;SDS011;3740;50.700;7.184;2023-02-28T09:18:15;6.23;;;3.60;;
7398;SDS011;3740;50.700;7.184;2023-02-28T09:20:41;3.63;;;3.10;;
7398;SDS011;3740;50.700;7.184;2023-02-28T09:23:08;3.10;;;2.90;;
7398;SDS011;3740;50.700;7.184;2023-02-28T09:25:35;3.67;;;3.37;;
7398;SDS011;3740;50.700;7.184;2023-02-28T09:28:01;3.57;;;3.27;;
7398;SDS011;3740;50.700;7.184;2023-02-28T09:30:27;3.63;;;3.03;;
7398;SDS011;3740;50.700;7.184;2023-02-28T09:32:52;3.97;;;3.13;;
7398;SDS011;3740;50.700;7.184;2023-02-28T09:35:19;3.33;;;3.03;;
7398;SDS011;3740;50.700;7.184;2023-02-28T09:37:49;3.60;;;3.30;;
7398;SDS011;3740;50.700;7.184;2023-02-28T09:40:16;3.30;;;3.00;;
7398;SDS011;3740;50.700;7.184;2023-02-28T09:42:44;3.13;;;2.93;;
7398;SDS011;3740;50.700;7.184;2023-02-28T09:45:32;3.00;;;2.80;;
7398;SDS011;3740;50.700;7.184;2023-02-28T09:48:06;3.40;;;3.10;;
7398;SDS011;3740;50.700;7.184;2023-02-28T09:50:50;2.93;;;2.73;;
7398;SDS011;3740;50.700;7.184;2023-02-28T09:56:01;4.73;;;2.87;;
7398;SDS011;3740;50.700;7.184;2023-02-28T09:58:42;3.27;;;2.97;;
7398;SDS011;3740;50.700;7.184;2023-02-28T10:01:18;2.80;;;2.60;;
7398;SDS011;3740;50.700;7.184;2023-02-28T10:03:55;4.07;;;3.03;;
7398;SDS011;3740;50.700;7.184;2023-02-28T10:06:26;3.30;;;3.00;;
7398;SDS011;3740;50.700;7.184;2023-02-28T10:09:02;3.17;;;2.70;;
7398;SDS011;3740;50.700;7.184;2023-02-28T10:11:32;2.77;;;2.57;;
7398;SDS011;3740;50.700;7.184;2023-02-28T10:14:13;3.60;;;3.30;;
7398;SDS011;3740;50.700;7.184;2023-02-28T10:22:00;4.03;;;3.00;;
7398;SDS011;3740;50.700;7.184;2023-02-28T10:24:35;4.13;;;2.90;;
7398;SDS011;3740;50.700;7.184;2023-02-28T10:27:15;3.17;;;2.87;;
7398;SDS011;3740;50.700;7.184;2023-02-28T10:29:44;3.57;;;3.10;;
7398;SDS011;3740;50.700;7.184;2023-02-28T10:32:19;2.70;;;2.50;;
7398;SDS011;3740;50.700;7.184;2023-02-28T10:34:57;2.60;;;2.40;;
7398;SDS011;3740;50.700;7.184;2023-02-28T10:37:24;4.37;;;2.77;;
7398;SDS011;3740;50.700;7.184;2023-02-28T10:39:49;2.80;;;2.43;;
7398;SDS011;3740;50.700;7.184;2023-02-28T10:42:26;2.30;;;2.10;;
7398;SDS011;3740;50.700;7.184;2023-02-28T10:45:09;4.20;;;2.38;;
7398;SDS011;3740;50.700;7.184;2023-02-28T10:47:56;3.10;;;2.28;;
7398;SDS011;3740;50.700;7.184;2023-02-28T10:51:05;2.20;;;2.10;;
7398;SDS011;3740;50.700;7.184;2023-02-28T10:55:57;2.83;;;2.55;;
7398;SDS011;3740;50.700;7.184;2023-02-28T11:04:16;2.35;;;1.95;;
7398;SDS011;3740;50.700;7.184;2023-02-28T11:07:16;3.13;;;2.80;;
7398;SDS011;3740;50.700;7.184;2023-02-28T11:10:18;2.97;;;2.72;;
7398;SDS011;3740;50.700;7.184;2023-02-28T11:12:43;3.42;;;2.75;;
7398;SDS011;3740;50.700;7.184;2023-02-28T11:15:29;2.70;;;2.50;;
7398;SDS011;3740;50.700;7.184;2023-02-28T11:17:58;2.50;;;2.30;;
7398;SDS011;3740;50.700;7.184;2023-02-28T11:20:28;2.20;;;2.03;;
7398;SDS011;3740;50.700;7.184;2023-02-28T11:22:56;2.67;;;2.47;;
7398;SDS011;3740;50.700;7.184;2023-02-28T11:25:33;2.63;;;2.42;;
7398;SDS011;3740;50.700;7.184;2023-02-28T11:28:02;2.70;;;2.50;;
7398;SDS011;3740;50.700;7.184;2023-02-28T11:30:38;2.60;;;2.40;;
7398;SDS011;3740;50.700;7.184;2023-02-28T11:33:18;2.55;;;2.35;;
7398;SDS011;3740;50.700;7.184;2023-02-28T11:35:45;2.67;;;2.47;;
7398;SDS011;3740;50.700;7.184;2023-02-28T11:38:14;2.97;;;2.22;;
7398;SDS011;3740;50.700;7.184;2023-02-28T11:43:24;2.53;;;2.30;;
7398;SDS011;3740;50.700;7.184;2023-02-28T11:51:40;2.35;;;2.15;;
7398;SDS011;3740;50.700;7.184;2023-02-28T11:54:27;2.83;;;2.60;;
7398;SDS011;3740;50.700;7.184;2023-02-28T11:57:24;2.72;;;2.53;;
7398;SDS011;3740;50.700;7.184;2023-02-28T12:02:31;2.53;;;2.33;;
7398;SDS011;3740;50.700;7.184;2023-02-28T12:05:19;4.07;;;2.83;;
7398;SDS011;3740;50.700;7.184;2023-02-28T12:08:06;2.17;;;2.08;;
7398;SDS011;3740;50.700;7.184;2023-02-28T12:22:10;3.00;;;2.25;;
7398;SDS011;3740;50.700;7.184;2023-02-28T12:27:46;2.72;;;2.53;;
7398;SDS011;3740;50.700;7.184;2023-02-28T12:30:14;4.50;;;2.30;;
7398;SDS011;3740;50.700;7.184;2023-02-28T12:32:56;2.97;;;2.75;;
7398;SDS011;3740;50.700;7.184;2023-02-28T12:35:33;3.22;;;2.92;;
7398;SDS011;3740;50.700;7.184;2023-02-28T12:38:12;2.92;;;2.10;;
7398;SDS011;3740;50.700;7.184;2023-02-28T12:40:45;3.22;;;3.00;;
7398;SDS011;3740;50.700;7.184;2023-02-28T12:43:20;2.70;;;2.50;;
7398;SDS011;3740;50.700;7.184;2023-02-28T12:45:55;2.50;;;2.30;;
7398;SDS011;3740;50.700;7.184;2023-02-28T12:48:27;2.90;;;2.70;;
7398;SDS011;3740;50.700;7.184;2023-02-28T12:51:02;2.95;;;2.63;;
7398;SDS011;3740;50.700;7.184;2023-02-28T12:53:35;4.97;;;4.50;;
7398;SDS011;3740;50.700;7.184;2023-02-28T12:56:16;2.97;;;2.60;;
7398;SDS011;3740;50.700;7.184;2023-02-28T12:58:47;2.88;;;2.60;;
7398;SDS011;3740;50.700;7.184;2023-02-28T13:01:39;3.10;;;2.80;;
7398;SDS011;3740;50.700;7.184;2023-02-28T13:10:06;2.90;;;2.70;;
7398;SDS011;3740;50.700;7.184;2023-02-28T13:12:32;3.70;;;2.90;;
7398;SDS011;3740;50.700;7.184;2023-02-28T13:15:07;3.20;;;2.90;;
7398;SDS011;3740;50.700;7.184;2023-02-28T13:17:50;3.47;;;3.17;;
7398;SDS011;3740;50.700;7.184;2023-02-28T13:20:25;5.57;;;3.37;;
7398;SDS011;3740;50.700;7.184;2023-02-28T13:22:54;3.47;;;3.17;;
7398;SDS011;3740;50.700;7.184;2023-02-28T13:27:48;4.27;;;3.30;;
7398;SDS011;3740;50.700;7.184;2023-02-28T13:33:29;3.13;;;2.83;;
7398;SDS011;3740;50.700;7.184;2023-02-28T13:36:09;4.05;;;3.05;;
7398;SDS011;3740;50.700;7.184;2023-02-28T13:38:45;3.30;;;2.60;;
7398;SDS011;3740;50.700;7.184;2023-02-28T13:46:34;3.20;;;2.90;;
7398;SDS011;3740;50.700;7.184;2023-02-28T13:49:18;3.38;;;3.08;;
7398;SDS011;3740;50.700;7.184;2023-02-28T14:06:07;3.23;;;2.93;;
7398;SDS011;3740;50.700;7.184;2023-02-28T14:11:36;3.43;;;3.13;;
7398;SDS011;3740;50.700;7.184;2023-02-28T14:14:04;3.60;;;3.30;;
7398;SDS011;3740;50.700;7.184;2023-02-28T14:16:40;4.07;;;3.67;;
7398;SDS011;3740;50.700;7.184;2023-02-28T14:19:14;4.43;;;3.60;;
7398;SDS011;3740;50.700;7.184;2023-02-28T14:24:59;3.23;;;2.93;;
7398;SDS011;3740;50.700;7.184;2023-02-28T14:36:00;4.57;;;3.97;;
7398;SDS011;3740;50.700;7.184;2023-02-28T14:38:33;4.30;;;3.90;;
7398;SDS011;3740;50.700;7.184;2023-02-28T14:41:06;4.03;;;3.73;;
7398;SDS011;3740;50.700;7.184;2023-02-28T14:43:47;3.90;;;3.50;;
7398;SDS011;3740;50.700;7.184;2023-02-28T14:46:15;4.20;;;3.80;;
7398;SDS011;3740;50.700;7.184;2023-02-28T14:48:44;4.00;;;3.70;;
7398;SDS011;3740;50.700;7.184;2023-02-28T14:51:11;4.07;;;3.77;;
7398;SDS011;3740;50.700;7.184;2023-02-28T14:53:42;4.30;;;3.90;;
7398;SDS011;3740;50.700;7.184;2023-02-28T14:56:18;4.03;;;3.63;;
7398;SDS011;3740;50.700;7.184;2023-02-28T14:58:53;4.17;;;3.80;;
7398;SDS011;3740;50.700;7.184;2023-02-28T15:01:21;4.53;;;4.03;;
7398;SDS011;3740;50.700;7.184;2023-02-28T15:03:48;4.03;;;3.73;;
7398;SDS011;3740;50.700;7.184;2023-02-28T15:06:23;4.27;;;3.87;;
7398;SDS011;3740;50.700;7.184;2023-02-28T15:09:06;4.47;;;4.03;;
7398;SDS011;3740;50.700;7.184;2023-02-28T15:11:33;4.83;;;4.27;;
7398;SDS011;3740;50.700;7.184;2023-02-28T15:13:59;4.50;;;4.10;;
7398;SDS011;3740;50.700;7.184;2023-02-28T15:16:28;4.60;;;4.10;;
7398;SDS011;3740;50.700;7.184;2023-02-28T15:18:58;4.70;;;4.30;;
7398;SDS011;3740;50.700;7.184;2023-02-28T15:21:34;4.97;;;4.10;;
7398;SDS011;3740;50.700;7.184;2023-02-28T15:24:05;4.90;;;4.50;;
7398;SDS011;3740;50.700;7.184;2023-02-28T15:26:50;4.80;;;4.40;;
7398;SDS011;3740;50.700;7.184;2023-02-28T15:29:20;4.50;;;4.10;;
7398;SDS011;3740;50.700;7.184;2023-02-28T15:31:49;5.10;;;4.23;;
7398;SDS011;3740;50.700;7.184;2023-02-28T15:34:20;4.53;;;4.10;;
7398;SDS011;3740;50.700;7.184;2023-02-28T15:37:00;5.33;;;4.53;;
7398;SDS011;3740;50.700;7.184;2023-02-28T15:39:27;4.70;;;4.10;;
7398;SDS011;3740;50.700;7.184;2023-02-28T15:42:13;4.43;;;4.03;;
7398;SDS011;3740;50.700;7.184;2023-02-28T15:44:44;4.90;;;4.30;;
7398;SDS011;3740;50.700;7.184;2023-02-28T15:47:20;5.17;;;4.33;;
7398;SDS011;3740;50.700;7.184;2023-02-28T15:49:49;4.90;;;4.43;;
7398;SDS011;3740;50.700;7.184;2023-02-28T15:52:16;5.17;;;4.30;;
7398;SDS011;3740;50.700;7.184;2023-02-28T15:54:45;4.97;;;4.57;;
7398;SDS011;3740;50.700;7.184;2023-02-28T15:57:17;4.93;;;4.47;;
7398;SDS011;3740;50.700;7.184;2023-02-28T15:59:50;4.73;;;4.27;;
7398;SDS011;3740;50.700;7.184;2023-02-28T16:02:20;4.90;;;4.50;;
7398;SDS011;3740;50.700;7.184;2023-02-28T16:07:31;4.73;;;4.33;;
7398;SDS011;3740;50.700;7.184;2023-02-28T16:09:58;5.10;;;4.57;;
7398;SDS011;3740;50.700;7.184;2023-02-28T16:12:27;4.80;;;4.40;;
7398;SDS011;3740;50.700;7.184;2023-02-28T16:14:55;5.07;;;4.20;;
7398;SDS011;3740;50.700;7.184;2023-02-28T16:17:28;4.30;;;3.97;;
7398;SDS011;3740;50.700;7.184;2023-02-28T16:19:56;4.50;;;3.87;;
7398;SDS011;3740;50.700;7.184;2023-02-28T16:22:22;4.43;;;4.03;;
7398;SDS011;3740;50.700;7.184;2023-02-28T16:24:48;4.60;;;4.20;;
7398;SDS011;3740;50.700;7.184;2023-02-28T16:27:16;5.00;;;3.80;;
7398;SDS011;3740;50.700;7.184;2023-02-28T16:29:44;4.43;;;4.03;;
7398;SDS011;3740;50.700;7.184;2023-02-28T16:32:12;4.03;;;3.73;;
7398;SDS011;3740;50.700;7.184;2023-02-28T16:34:42;5.27;;;4.17;;
7398;SDS011;3740;50.700;7.184;2023-02-28T16:37:15;3.90;;;3.60;;
7398;SDS011;3740;50.700;7.184;2023-02-28T16:39:43;4.27;;;3.90;;
7398;SDS011;3740;50.700;7.184;2023-02-28T16:42:17;4.40;;;4.00;;
7398;SDS011;3740;50.700;7.184;2023-02-28T16:44:49;4.30;;;3.90;;
7398;SDS011;3740;50.700;7.184;2023-02-28T16:47:16;4.90;;;3.90;;
7398;SDS011;3740;50.700;7.184;2023-02-28T16:49:42;4.50;;;4.10;;
7398;SDS011;3740;50.700;7.184;2023-02-28T16:52:09;4.23;;;3.83;;
7398;SDS011;3740;50.700;7.184;2023-02-28T16:54:36;4.40;;;4.10;;
7398;SDS011;3740;50.700;7.184;2023-02-28T16:57:03;4.97;;;4.23;;
7398;SDS011;3740;50.700;7.184;2023-02-28T16:59:29;4.30;;;3.93;;
7398;SDS011;3740;50.700;7.184;2023-02-28T17:01:55;4.40;;;4.00;;
7398;SDS011;3740;50.700;7.184;2023-02-28T17:04:25;4.57;;;4.17;;
7398;SDS011;3740;50.700;7.184;2023-02-28T17:06:51;4.17;;;3.77;;
7398;SDS011;3740;50.700;7.184;2023-02-28T17:09:18;4.17;;;3.87;;
7398;SDS011;3740;50.700;7.184;2023-02-28T17:11:45;4.67;;;4.17;;
7398;SDS011;3740;50.700;7.184;2023-02-28T17:14:11;4.40;;;4.00;;
7398;SDS011;3740;50.700;7.184;2023-02-28T17:16:38;4.80;;;4.30;;
7398;SDS011;3740;50.700;7.184;2023-02-28T17:19:13;4.67;;;4.03;;
7398;SDS011;3740;50.700;7.184;2023-02-28T17:21:40;5.47;;;4.97;;
7398;SDS011;3740;50.700;7.184;2023-02-28T17:24:07;7.60;;;6.50;;
7398;SDS011;3740;50.700;7.184;2023-02-28T17:26:34;9.47;;;8.17;;
7398;SDS011;3740;50.700;7.184;2023-02-28T17:29:00;10.63;;;9.53;;
7398;SDS011;3740;50.700;7.184;2023-02-28T17:31:26;10.97;;;9.80;;